Jackson, Mississippi
Current Conditions -  °F | °C
As of 1:53 PM on Wednesday 26 Nov 2014 (Local Time) from KHKS Reporting Station
Clear Clear  
Wind Chill: 19°   Ceiling: Unl
Heat Index: 19°   Visibility: 10mi
Dew Point:   Wind: 13mph
Humidity: 29%   Direction: 230°SW
Pressure: 30.06"   Gusts: 23mph
Location:  32.3°N, 90.18°W
Report Text: KHKS 261953Z AUTO 23011G20KT 10SM CLR 19/01 A3006 RMK AO2 PK WND 22028/1930 SLP174 T01890006
Loading
Personal Weather Stations






























Interactive Weather Map New forecast layout! Learn more

10-Day Weather Forecast

Advertisements
Track Severe Weather on mobile